Time;durP1;ratioP1;P1;durP2;ratioP2;P2;SDS_P1;SDS_P2;PMS_P1;PMS_P2;Temp;Humidity;BMP_temperature;BMP_pressure;BME280_temperature;BME280_humidity;BME280_pressure;Samples;Min_cycle;Max_cycle;Signal;HPM_P1;HPM_P2
2022/04/19 00:00:21;;;;;;;;;;;7.00;79.90;;;;;;5002104;28;19925;-70
2022/04/19 00:02:47;;;;;;;;;;;7.00;80.00;;;;;;4998560;28;19922;-68
2022/04/19 00:05:14;;;;;;;;;;;7.00;79.90;;;;;;5007382;28;19925;-70
2022/04/19 00:07:41;;;;;;;;;;;6.90;80.50;;;;;;5009401;28;20117;-70
2022/04/19 00:10:10;;;;;;;;;;;6.90;80.90;;;;;;4993451;28;19925;-70
2022/04/19 00:12:37;;;;;;;;;;;6.80;81.10;;;;;;5007909;28;19975;-70
2022/04/19 00:15:04;;;;;;;;;;;6.80;81.30;;;;;;5006153;28;20363;-73
2022/04/19 00:17:31;;;;;;;;;;;6.80;81.30;;;;;;5007632;28;20258;-72
2022/04/19 00:19:57;;;;;;;;;;;6.80;81.50;;;;;;5007703;28;20311;-73
2022/04/19 00:22:24;;;;;;;;;;;6.70;81.40;;;;;;5002935;28;20042;-72
2022/04/19 00:24:51;;;;;;;;;;;6.70;81.60;;;;;;5005055;28;19932;-72
2022/04/19 00:27:19;;;;;;;;;;;6.70;81.90;;;;;;5008197;28;20290;-71
2022/04/19 00:29:47;;;;;;;;;;;6.70;82.10;;;;;;5010112;28;20582;-72
2022/04/19 00:32:14;;;;;;;;;;;6.60;82.20;;;;;;5003539;28;19979;-72
2022/04/19 00:34:41;;;;;;;;;;;6.90;82.60;;;;;;5004390;28;19947;-71
2022/04/19 00:37:08;;;;;;;;;;;6.60;82.60;;;;;;4995509;28;19926;-73
2022/04/19 00:39:35;;;;;;;;;;;6.60;82.80;;;;;;5007769;28;19929;-72
2022/04/19 00:42:02;;;;;;;;;;;6.60;82.90;;;;;;5005884;28;19944;-73
2022/04/19 00:44:33;;;;;;;;;;;6.50;83.00;;;;;;4998377;28;19936;-73
2022/04/19 00:47:00;;;;;;;;;;;6.50;83.90;;;;;;5012672;28;19948;-73
2022/04/19 00:49:28;;;;;;;;;;;6.50;83.30;;;;;;5007590;28;20298;-73
2022/04/19 00:51:56;;;;;;;;;;;6.50;83.50;;;;;;5001572;28;20398;-73
2022/04/19 00:54:23;;;;;;;;;;;6.40;83.60;;;;;;5015393;28;20031;-72
2022/04/19 00:56:50;;;;;;;;;;;6.40;83.70;;;;;;5017292;28;20041;-73
2022/04/19 00:59:20;;;;;;;;;;;6.40;83.90;;;;;;5000182;28;19978;-74
2022/04/19 01:01:49;;;;;;;;;;;6.40;84.00;;;;;;4996593;28;19925;-73
2022/04/19 01:04:15;;;;;;;;;;;6.40;84.30;;;;;;5003606;28;19932;-72
2022/04/19 01:06:42;;;;;;;;;;;6.40;84.30;;;;;;5001338;28;19921;-72
2022/04/19 01:09:09;;;;;;;;;;;6.40;84.50;;;;;;4999133;28;19925;-73
2022/04/19 01:14:20;;;;;;;;;;;6.30;84.80;;;;;;4991312;28;20497;-73
2022/04/19 01:16:49;;;;;;;;;;;6.30;84.70;;;;;;4992973;28;19925;-73
2022/04/19 01:19:16;;;;;;;;;;;6.20;84.80;;;;;;4998041;28;19929;-73
2022/04/19 01:21:46;;;;;;;;;;;6.20;84.90;;;;;;4995799;28;19945;-72
2022/04/19 01:24:15;;;;;;;;;;;6.20;85.10;;;;;;4998263;28;20406;-73
2022/04/19 01:26:42;;;;;;;;;;;6.20;85.20;;;;;;4997986;28;19925;-72
2022/04/19 01:29:10;;;;;;;;;;;6.20;85.50;;;;;;4992736;28;20469;-73
2022/04/19 01:31:37;;;;;;;;;;;6.10;85.50;;;;;;4983929;28;19925;-74
2022/04/19 01:34:04;;;;;;;;;;;6.10;85.60;;;;;;4993652;28;19925;-73
2022/04/19 01:36:31;;;;;;;;;;;6.10;85.70;;;;;;4992830;28;19936;-74
2022/04/19 01:38:59;;;;;;;;;;;6.10;85.90;;;;;;4992423;28;19925;-74
2022/04/19 01:41:27;;;;;;;;;;;5.90;85.90;;;;;;4992828;28;20305;-74
2022/04/19 01:43:58;;;;;;;;;;;6.10;86.20;;;;;;4985866;28;20163;-74
2022/04/19 01:46:26;;;;;;;;;;;6.10;86.30;;;;;;4989082;28;19925;-73
2022/04/19 01:48:54;;;;;;;;;;;6.10;86.40;;;;;;4982572;28;19975;-73
2022/04/19 01:51:21;;;;;;;;;;;6.00;86.60;;;;;;4995075;28;19922;-71
2022/04/19 01:53:48;;;;;;;;;;;6.10;86.80;;;;;;4987295;28;19984;-72
2022/04/19 01:56:17;;;;;;;;;;;6.10;86.90;;;;;;4987901;28;20158;-73
2022/04/19 01:58:53;;;;;;;;;;;6.10;87.20;;;;;;4994628;28;20450;-72
2022/04/19 02:01:25;;;;;;;;;;;6.10;87.40;;;;;;4971915;28;19926;-73
2022/04/19 02:03:51;;;;;;;;;;;6.30;87.60;;;;;;4992263;28;19929;-73
2022/04/19 02:06:23;;;;;;;;;;;6.30;87.70;;;;;;4992554;28;20329;-72
2022/04/19 02:08:50;;;;;;;;;;;6.40;87.80;;;;;;4997708;28;19921;-73
2022/04/19 02:11:21;;;;;;;;;;;6.40;87.70;;;;;;4993505;28;20306;-71
2022/04/19 02:14:02;;;;;;;;;;;6.50;87.80;;;;;;4986454;28;19925;-71
2022/04/19 02:16:37;;;;;;;;;;;6.40;87.90;;;;;;4993406;28;20300;-72
2022/04/19 02:19:05;;;;;;;;;;;6.40;88.20;;;;;;5005744;28;20358;-72
2022/04/19 02:21:32;;;;;;;;;;;6.40;88.20;;;;;;4994534;28;19922;-73
2022/04/19 02:23:59;;;;;;;;;;;6.40;88.30;;;;;;4994745;28;19925;-72
2022/04/19 02:26:28;;;;;;;;;;;6.30;88.30;;;;;;4989132;28;19921;-73
2022/04/19 02:28:56;;;;;;;;;;;6.30;88.30;;;;;;4981653;28;20353;-72
2022/04/19 02:31:32;;;;;;;;;;;6.20;88.30;;;;;;4992302;28;20016;-74
2022/04/19 02:34:00;;;;;;;;;;;6.20;88.40;;;;;;4988839;28;19984;-71
2022/04/19 02:36:27;;;;;;;;;;;6.10;88.50;;;;;;4989025;28;19987;-73
2022/04/19 02:38:54;;;;;;;;;;;6.10;88.60;;;;;;4989303;28;19926;-72
2022/04/19 02:41:21;;;;;;;;;;;6.00;88.80;;;;;;4990548;28;20022;-71
2022/04/19 02:43:59;;;;;;;;;;;6.00;88.90;;;;;;4986768;28;20295;-73
2022/04/19 02:46:26;;;;;;;;;;;5.90;88.90;;;;;;4992176;28;19925;-71
2022/04/19 02:48:55;;;;;;;;;;;5.80;89.00;;;;;;5000332;28;20019;-71
2022/04/19 02:51:23;;;;;;;;;;;5.80;89.20;;;;;;4995580;28;19921;-73
2022/04/19 02:53:49;;;;;;;;;;;5.80;89.40;;;;;;4987810;28;19925;-72
2022/04/19 02:56:16;;;;;;;;;;;5.70;89.50;;;;;;4986119;28;20012;-72
2022/04/19 02:58:44;;;;;;;;;;;5.70;89.70;;;;;;4993011;28;19922;-72
2022/04/19 03:01:13;;;;;;;;;;;5.60;89.90;;;;;;4994113;28;19944;-73
2022/04/19 03:03:39;;;;;;;;;;;5.60;90.10;;;;;;4996404;28;19936;-72
2022/04/19 03:06:08;;;;;;;;;;;5.60;90.10;;;;;;4973339;28;116832;-72
2022/04/19 03:08:35;;;;;;;;;;;5.50;90.20;;;;;;4991684;28;19925;-72
2022/04/19 03:11:02;;;;;;;;;;;5.50;90.30;;;;;;4984474;28;19925;-73
2022/04/19 03:13:31;;;;;;;;;;;5.50;90.40;;;;;;4995688;28;19925;-73
2022/04/19 03:15:58;;;;;;;;;;;5.40;90.50;;;;;;4991585;28;19937;-72
2022/04/19 03:18:27;;;;;;;;;;;5.20;90.50;;;;;;4987280;28;19936;-70
2022/04/19 03:20:54;;;;;;;;;;;5.40;90.60;;;;;;4989683;28;19936;-70
2022/04/19 03:28:55;;;;;;;;;;;5.20;91.60;;;;;;5004773;28;19922;-71
2022/04/19 03:31:23;;;;;;;;;;;5.10;91.40;;;;;;4998299;28;19922;-71
2022/04/19 03:33:52;;;;;;;;;;;5.20;91.70;;;;;;5009493;28;19925;-70
2022/04/19 03:36:20;;;;;;;;;;;5.20;91.80;;;;;;5003723;28;19964;-70
2022/04/19 03:38:48;;;;;;;;;;;5.20;92.10;;;;;;5009599;28;20212;-70
2022/04/19 03:41:15;;;;;;;;;;;5.20;92.20;;;;;;4995064;28;20021;-70
2022/04/19 03:43:42;;;;;;;;;;;5.20;92.10;;;;;;4992711;28;19929;-70
2022/04/19 03:46:09;;;;;;;;;;;5.20;92.40;;;;;;5001818;28;20175;-71
2022/04/19 03:48:37;;;;;;;;;;;5.20;92.50;;;;;;4993081;28;19932;-71
2022/04/19 03:51:05;;;;;;;;;;;5.10;92.80;;;;;;5005878;28;20382;-71
2022/04/19 03:53:32;;;;;;;;;;;5.10;93.00;;;;;;5000412;28;19921;-69
2022/04/19 03:55:59;;;;;;;;;;;5.10;92.70;;;;;;4996257;28;19936;-71
2022/04/19 03:58:27;;;;;;;;;;;5.10;93.40;;;;;;5005039;28;19925;-71
2022/04/19 04:00:54;;;;;;;;;;;5.10;93.90;;;;;;4998225;28;19937;-70
2022/04/19 04:03:23;;;;;;;;;;;5.10;94.80;;;;;;4995760;28;19933;-69
2022/04/19 04:05:50;;;;;;;;;;;5.10;95.50;;;;;;5012485;28;20039;-70
2022/04/19 04:08:18;;;;;;;;;;;5.20;96.10;;;;;;5001538;28;19925;-71
2022/04/19 04:10:51;;;;;;;;;;;5.30;96.60;;;;;;4993965;28;19969;-71
2022/04/19 04:13:21;;;;;;;;;;;5.20;96.80;;;;;;5000874;28;19932;-71
2022/04/19 04:15:48;;;;;;;;;;;5.30;97.80;;;;;;5001140;28;19922;-69
2022/04/19 04:18:15;;;;;;;;;;;5.40;98.20;;;;;;4995385;28;20020;-70
2022/04/19 04:20:42;;;;;;;;;;;5.40;99.90;;;;;;4998400;28;19925;-70
2022/04/19 04:23:09;;;;;;;;;;;5.60;99.90;;;;;;5000600;28;20023;-70
2022/04/19 04:25:37;;;;;;;;;;;5.50;99.90;;;;;;4999823;28;19926;-71
2022/04/19 04:28:04;;;;;;;;;;;5.40;99.90;;;;;;4999105;28;19952;-71
2022/04/19 04:30:41;;;;;;;;;;;5.50;99.90;;;;;;5013555;28;20000;-71
2022/04/19 04:33:08;;;;;;;;;;;5.50;99.90;;;;;;4998164;28;19925;-70
2022/04/19 04:35:35;;;;;;;;;;;5.50;99.90;;;;;;4988655;28;20319;-70
2022/04/19 04:38:02;;;;;;;;;;;5.70;99.90;;;;;;4999573;28;19937;-70
2022/04/19 04:40:30;;;;;;;;;;;6.60;99.90;;;;;;4989114;28;19937;-70
2022/04/19 04:43:01;;;;;;;;;;;6.00;99.90;;;;;;4999914;28;19926;-70
2022/04/19 04:45:29;;;;;;;;;;;6.10;99.90;;;;;;5000135;28;20003;-70
2022/04/19 04:50:41;;;;;;;;;;;6.50;99.90;;;;;;5019440;23;19928;-78
2022/04/19 04:53:08;;;;;;;;;;;6.50;99.90;;;;;;5019145;28;19970;-78
2022/04/19 04:55:39;;;;;;;;;;;6.70;99.90;;;;;;5008623;28;19960;-78
2022/04/19 04:58:11;;;;;;;;;;;6.90;99.90;;;;;;5018390;28;19925;-77
2022/04/19 05:00:38;;;;;;;;;;;6.80;99.90;;;;;;5023562;28;19928;-78
2022/04/19 05:03:05;;;;;;;;;;;6.90;99.90;;;;;;5006213;28;19984;-79
2022/04/19 05:05:32;;;;;;;;;;;6.90;99.90;;;;;;5004562;28;19926;-78
2022/04/19 05:08:03;;;;;;;;;;;7.00;99.90;;;;;;5009727;28;19925;-78
2022/04/19 05:10:30;;;;;;;;;;;7.10;99.90;;;;;;5008516;28;19929;-77
2022/04/19 05:12:58;;;;;;;;;;;7.30;99.90;;;;;;5010148;28;19925;-78
2022/04/19 05:15:28;;;;;;;;;;;7.90;99.90;;;;;;5012794;28;20008;-78
2022/04/19 05:17:55;;;;;;;;;;;7.60;99.90;;;;;;5009893;28;20362;-77
2022/04/19 05:20:22;;;;;;;;;;;7.70;99.90;;;;;;5009074;28;19925;-78
2022/04/19 05:22:49;;;;;;;;;;;7.80;99.90;;;;;;5010649;28;19921;-78
2022/04/19 05:25:16;;;;;;;;;;;8.00;99.90;;;;;;5009030;28;20424;-77
2022/04/19 05:27:43;;;;;;;;;;;8.00;99.90;;;;;;5009533;28;20024;-77
2022/04/19 05:30:10;;;;;;;;;;;8.20;99.90;;;;;;5009055;28;19930;-77
2022/04/19 05:32:39;;;;;;;;;;;8.50;99.90;;;;;;5019622;28;19952;-79
2022/04/19 05:35:06;;;;;;;;;;;8.80;99.90;;;;;;5018273;28;19926;-78
2022/04/19 05:37:36;;;;;;;;;;;10.10;99.90;;;;;;5014192;28;19921;-78
2022/04/19 05:40:03;;;;;;;;;;;10.20;99.90;;;;;;5012806;28;20355;-78
2022/04/19 05:42:30;;;;;;;;;;;11.40;99.90;;;;;;5005554;28;19929;-78
2022/04/19 05:44:57;;;;;;;;;;;12.90;99.90;;;;;;5004859;28;19925;-78
2022/04/19 05:47:24;;;;;;;;;;;13.90;94.50;;;;;;5008306;28;20370;-78
2022/04/19 05:49:52;;;;;;;;;;;15.00;93.00;;;;;;5007441;28;19925;-78
2022/04/19 05:52:19;;;;;;;;;;;16.00;92.00;;;;;;5008217;28;19972;-78
2022/04/19 05:54:46;;;;;;;;;;;17.00;91.80;;;;;;5008030;28;19936;-78
2022/04/19 05:57:15;;;;;;;;;;;18.10;92.80;;;;;;5007934;28;19957;-78
2022/04/19 05:59:43;;;;;;;;;;;19.00;89.90;;;;;;5007211;28;19967;-77
2022/04/19 06:04:58;;;;;;;;;;;20.90;97.50;;;;;;4999453;28;19921;-77
2022/04/19 06:07:29;;;;;;;;;;;21.80;97.10;;;;;;5003687;28;20398;-78
2022/04/19 06:09:57;;;;;;;;;;;22.60;96.20;;;;;;5010825;28;20007;-78
2022/04/19 06:12:24;;;;;;;;;;;23.30;95.50;;;;;;5002864;28;19922;-78
2022/04/19 06:14:54;;;;;;;;;;;24.00;95.20;;;;;;5007234;28;19925;-78
2022/04/19 06:17:27;;;;;;;;;;;24.80;95.20;;;;;;5007722;28;19983;-79
2022/04/19 06:19:55;;;;;;;;;;;25.50;94.70;;;;;;5007366;28;20020;-78
2022/04/19 06:22:22;;;;;;;;;;;;;;;;;;5007223;28;20302;-78
2022/04/19 06:25:04;;;;;;;;;;;26.80;92.70;;;;;;5005266;28;20056;-79
2022/04/19 06:27:31;;;;;;;;;;;27.50;91.00;;;;;;5003802;28;19929;-77
2022/04/19 06:29:59;;;;;;;;;;;27.40;90.30;;;;;;5007648;28;19932;-81
2022/04/19 06:32:25;;;;;;;;;;;27.30;89.70;;;;;;5006070;28;20362;-78
2022/04/19 06:34:54;;;;;;;;;;;27.00;88.90;;;;;;5011460;28;20378;-79
2022/04/19 06:37:24;;;;;;;;;;;27.00;90.20;;;;;;5008537;28;19948;-78
2022/04/19 06:40:00;;;;;;;;;;;27.70;89.30;;;;;;4999888;28;19929;-79
2022/04/19 06:42:29;;;;;;;;;;;28.20;88.10;;;;;;5015212;28;20111;-79
2022/04/19 06:45:14;;;;;;;;;;;28.40;87.10;;;;;;4998508;28;19971;-79
2022/04/19 06:47:46;;;;;;;;;;;28.70;86.20;;;;;;5003002;28;19921;-78
2022/04/19 06:50:13;;;;;;;;;;;28.50;82.30;;;;;;5006824;28;20442;-79
2022/04/19 06:52:43;;;;;;;;;;;27.80;83.80;;;;;;5007692;28;20278;-82
2022/04/19 06:55:30;;;;;;;;;;;28.30;85.00;;;;;;5004854;28;19925;-81
2022/04/19 06:57:58;;;;;;;;;;;29.10;86.50;;;;;;5016152;28;20049;-79
2022/04/19 07:00:25;;;;;;;;;;;29.80;84.90;;;;;;5022524;28;19921;-78
2022/04/19 07:02:52;;;;;;;;;;;30.20;84.00;;;;;;5010751;28;20024;-78
2022/04/19 07:05:41;;;;;;;;;;;30.80;84.20;;;;;;5008115;28;20424;-78
2022/04/19 07:08:09;;;;;;;;;;;31.10;83.50;;;;;;5002792;28;19933;-79
2022/04/19 07:10:36;;;;;;;;;;;31.10;77.60;;;;;;5001034;28;19964;-79
2022/04/19 07:13:24;;;;;;;;;;;30.40;79.00;;;;;;5007244;28;19975;-78
2022/04/19 07:15:52;;;;;;;;;;;30.20;79.00;;;;;;5006335;28;19948;-78
2022/04/19 07:18:23;;;;;;;;;;;29.70;77.90;;;;;;5005688;28;19928;-77
2022/04/19 07:29:04;;;;;;;;;;;29.60;78.00;;;;;;5002351;28;20004;-79
2022/04/19 07:31:31;;;;;;;;;;;29.50;77.10;;;;;;5008781;28;19953;-78
2022/04/19 07:34:01;;;;;;;;;;;29.30;76.70;;;;;;5008284;28;19933;-79
2022/04/19 07:36:28;;;;;;;;;;;29.30;77.80;;;;;;5010625;28;19932;-78
2022/04/19 07:38:57;;;;;;;;;;;29.00;77.60;;;;;;5006241;28;20037;-79
2022/04/19 07:41:30;;;;;;;;;;;28.70;76.60;;;;;;5003593;28;20227;-79
2022/04/19 07:43:57;;;;;;;;;;;28.50;78.00;;;;;;5006331;28;20405;-78
2022/04/19 07:46:25;;;;;;;;;;;28.50;76.30;;;;;;5001894;28;19960;-79
2022/04/19 07:48:52;;;;;;;;;;;27.90;77.20;;;;;;5003776;28;20248;-78
2022/04/19 07:51:19;;;;;;;;;;;28.00;77.70;;;;;;5005818;28;19925;-77
2022/04/19 07:53:47;;;;;;;;;;;27.70;76.30;;;;;;4999988;28;20353;-78
2022/04/19 07:56:14;;;;;;;;;;;27.80;77.30;;;;;;5006731;28;20155;-78
2022/04/19 07:58:42;;;;;;;;;;;27.90;76.10;;;;;;5005550;28;19925;-82
2022/04/19 08:01:10;;;;;;;;;;;27.20;75.80;;;;;;5009728;28;20020;-78
2022/04/19 08:03:38;;;;;;;;;;;27.10;75.70;;;;;;5010164;28;19925;-82
2022/04/19 08:06:05;;;;;;;;;;;27.00;76.70;;;;;;5009877;28;19988;-79
2022/04/19 08:08:32;;;;;;;;;;;27.00;76.90;;;;;;5007840;28;20408;-79
2022/04/19 08:10:58;;;;;;;;;;;26.50;77.10;;;;;;5013650;28;20271;-81
2022/04/19 08:13:25;;;;;;;;;;;26.00;78.00;;;;;;5011271;28;20045;-79
2022/04/19 08:15:52;;;;;;;;;;;26.00;76.60;;;;;;5009284;28;19933;-78
2022/04/19 08:18:21;;;;;;;;;;;25.90;76.60;;;;;;5003350;28;19925;-79
2022/04/19 08:20:52;;;;;;;;;;;25.40;77.80;;;;;;5007963;28;19929;-81
2022/04/19 08:23:20;;;;;;;;;;;25.20;77.90;;;;;;5007353;28;19932;-78
2022/04/19 08:25:54;;;;;;;;;;;25.00;77.50;;;;;;5005652;28;19931;-79
2022/04/19 08:28:21;;;;;;;;;;;25.00;77.30;;;;;;5011403;28;19932;-78
2022/04/19 08:30:48;;;;;;;;;;;24.30;76.70;;;;;;5007396;28;19983;-77
2022/04/19 08:33:20;;;;;;;;;;;24.90;76.70;;;;;;5009643;28;20005;-78
2022/04/19 08:35:55;;;;;;;;;;;24.50;75.70;;;;;;5005121;28;19929;-80
2022/04/19 08:38:23;;;;;;;;;;;23.80;77.40;;;;;;5019370;28;19937;-79
2022/04/19 08:40:50;;;;;;;;;;;23.50;77.40;;;;;;5003759;28;19972;-79
2022/04/19 08:43:18;;;;;;;;;;;23.50;78.10;;;;;;5008955;28;19932;-79
2022/04/19 08:45:46;;;;;;;;;;;23.50;78.20;;;;;;5016015;28;20355;-78
2022/04/19 08:48:15;;;;;;;;;;;23.20;77.30;;;;;;5008101;28;19925;-79
2022/04/19 08:50:43;;;;;;;;;;;23.10;77.60;;;;;;5006349;28;20414;-80
2022/04/19 08:58:40;;;;;;;;;;;23.00;78.50;;;;;;5005461;28;20568;-77
2022/04/19 09:01:06;;;;;;;;;;;23.20;79.50;;;;;;5010030;28;20004;-79
2022/04/19 09:03:33;;;;;;;;;;;23.40;79.10;;;;;;5012133;28;19925;-77
2022/04/19 09:06:00;;;;;;;;;;;23.20;78.50;;;;;;5008404;28;20095;-78
2022/04/19 09:08:27;;;;;;;;;;;22.90;78.50;;;;;;5012047;28;19933;-79
2022/04/19 09:11:05;;;;;;;;;;;22.80;79.70;;;;;;5002769;28;19948;-79
2022/04/19 09:13:32;;;;;;;;;;;22.50;78.90;;;;;;5015444;28;19925;-79
2022/04/19 09:16:03;;;;;;;;;;;22.10;79.50;;;;;;5011840;28;20357;-79
2022/04/19 09:18:31;;;;;;;;;;;21.90;79.90;;;;;;5011286;28;19948;-79
2022/04/19 09:20:58;;;;;;;;;;;21.90;80.70;;;;;;5013511;28;20321;-79
2022/04/19 09:23:25;;;;;;;;;;;22.00;80.10;;;;;;5010039;28;19932;-79
2022/04/19 09:25:53;;;;;;;;;;;22.10;80.90;;;;;;5003819;28;19925;-77
2022/04/19 09:28:21;;;;;;;;;;;22.30;80.40;;;;;;5005890;28;20028;-79
2022/04/19 09:30:49;;;;;;;;;;;22.20;80.00;;;;;;5011005;28;19930;-79
2022/04/19 09:33:17;;;;;;;;;;;22.00;80.70;;;;;;5014036;28;20284;-79
2022/04/19 09:35:44;;;;;;;;;;;21.90;80.70;;;;;;5028081;28;19955;-81
2022/04/19 09:38:12;;;;;;;;;;;21.50;79.80;;;;;;5021974;28;20043;-78
2022/04/19 09:40:39;;;;;;;;;;;21.00;79.40;;;;;;5011178;28;19932;-80
2022/04/19 09:43:10;;;;;;;;;;;20.40;79.40;;;;;;5011486;28;20104;-80
2022/04/19 09:45:50;;;;;;;;;;;19.80;80.10;;;;;;5009599;28;20501;-78
2022/04/19 09:48:17;;;;;;;;;;;19.20;80.40;;;;;;5012654;28;20687;-79
2022/04/19 09:50:51;;;;;;;;;;;19.00;81.40;;;;;;5008578;28;19930;-78
2022/04/19 09:53:18;;;;;;;;;;;18.70;81.10;;;;;;5003037;28;19937;-77
2022/04/19 09:55:46;;;;;;;;;;;18.90;81.90;;;;;;5003490;28;20031;-80
2022/04/19 09:58:14;;;;;;;;;;;18.30;81.70;;;;;;5010350;28;19960;-78
2022/04/19 10:00:42;;;;;;;;;;;18.30;82.50;;;;;;5014443;28;19929;-79
2022/04/19 10:08:39;;;;;;;;;;;18.00;83.50;;;;;;5010740;28;19928;-78
2022/04/19 10:11:06;;;;;;;;;;;18.00;83.40;;;;;;5013443;28;19925;-79
2022/04/19 10:13:33;;;;;;;;;;;18.10;84.00;;;;;;5013770;28;20003;-77
2022/04/19 10:16:00;;;;;;;;;;;18.10;83.60;;;;;;5013107;28;19921;-78
2022/04/19 10:18:28;;;;;;;;;;;19.00;83.90;;;;;;5008598;28;19929;-80
2022/04/19 10:20:58;;;;;;;;;;;18.10;83.10;;;;;;5005138;28;20310;-79
2022/04/19 10:23:34;;;;;;;;;;;18.60;84.20;;;;;;5009139;28;20446;-77
2022/04/19 10:26:12;;;;;;;;;;;18.30;83.40;;;;;;5008235;28;19926;-77
2022/04/19 10:28:39;;;;;;;;;;;18.30;84.30;;;;;;5009454;28;19968;-79
2022/04/19 10:31:06;;;;;;;;;;;18.40;83.70;;;;;;5012112;28;20259;-77
2022/04/19 10:33:49;;;;;;;;;;;18.30;83.00;;;;;;5006651;28;20183;-77
2022/04/19 10:36:16;;;;;;;;;;;18.30;83.30;;;;;;5011146;28;20245;-78
2022/04/19 10:38:44;;;;;;;;;;;18.50;83.20;;;;;;5012783;28;19925;-77
2022/04/19 10:41:10;;;;;;;;;;;18.50;83.50;;;;;;5014160;28;19925;-77
2022/04/19 10:43:37;;;;;;;;;;;18.40;83.00;;;;;;5009332;28;19933;-77
2022/04/19 10:46:17;;;;;;;;;;;19.20;83.80;;;;;;5004185;28;20303;-76
2022/04/19 10:48:59;;;;;;;;;;;18.50;83.20;;;;;;4993541;28;19929;-77
2022/04/19 10:51:30;;;;;;;;;;;18.60;82.90;;;;;;5005014;28;19936;-77
2022/04/19 10:53:57;;;;;;;;;;;18.70;82.50;;;;;;4991873;28;19963;-78
2022/04/19 10:56:24;;;;;;;;;;;18.70;83.50;;;;;;5002246;28;20275;-76
2022/04/19 10:58:50;;;;;;;;;;;18.90;84.40;;;;;;5004658;28;19976;-77
2022/04/19 11:01:30;;;;;;;;;;;19.20;82.50;;;;;;5001965;28;19980;-77
2022/04/19 11:03:57;;;;;;;;;;;19.00;81.30;;;;;;5000144;28;20020;-77
2022/04/19 11:06:33;;;;;;;;;;;19.00;83.00;;;;;;5002607;28;19925;-77
2022/04/19 11:09:07;;;;;;;;;;;19.00;82.80;;;;;;4997363;28;20403;-78
2022/04/19 11:11:44;;;;;;;;;;;19.10;83.80;;;;;;4999965;28;19945;-77
2022/04/19 11:14:31;;;;;;;;;;;19.40;83.50;;;;;;5006564;28;19932;-78
2022/04/19 11:17:13;;;;;;;;;;;19.50;83.40;;;;;;5001291;28;19925;-77
2022/04/19 11:19:51;;;;;;;;;;;19.60;83.00;;;;;;5003240;28;19929;-77
2022/04/19 11:22:29;;;;;;;;;;;19.70;83.00;;;;;;5009619;28;19925;-75
2022/04/19 11:25:03;;;;;;;;;;;19.90;83.10;;;;;;5007391;28;20337;-77
2022/04/19 11:27:48;;;;;;;;;;;19.90;82.60;;;;;;5002359;28;20394;-77
2022/04/19 11:30:15;;;;;;;;;;;19.60;82.50;;;;;;5002505;28;19937;-77
2022/04/19 11:32:42;;;;;;;;;;;20.00;83.00;;;;;;5002091;28;20140;-77
2022/04/19 11:35:16;;;;;;;;;;;20.00;82.70;;;;;;5009192;28;19925;-77
2022/04/19 11:37:44;;;;;;;;;;;19.80;82.80;;;;;;5002792;28;19921;-77
2022/04/19 11:48:34;;;;;;;;;;;19.80;82.60;;;;;;5008102;28;20375;-78
2022/04/19 11:51:08;;;;;;;;;;;20.00;83.30;;;;;;5010793;28;19925;-80
2022/04/19 11:53:36;;;;;;;;;;;20.00;82.80;;;;;;5011588;28;20015;-79
2022/04/19 11:56:03;;;;;;;;;;;20.10;82.70;;;;;;5008302;28;19988;-82
2022/04/19 11:58:30;;;;;;;;;;;20.00;82.30;;;;;;5010587;28;20059;-78
2022/04/19 12:00:58;;;;;;;;;;;19.90;82.60;;;;;;5002908;28;20456;-79
2022/04/19 12:03:26;;;;;;;;;;;20.10;83.20;;;;;;5005158;28;20371;-81
2022/04/19 12:05:53;;;;;;;;;;;20.20;83.30;;;;;;5016905;28;19985;-78
2022/04/19 12:08:29;;;;;;;;;;;20.30;82.70;;;;;;5014174;28;19930;-78
2022/04/19 12:10:58;;;;;;;;;;;20.70;83.10;;;;;;5018488;28;20402;-78
2022/04/19 12:13:25;;;;;;;;;;;20.90;83.30;;;;;;5022398;28;19932;-77
2022/04/19 12:15:52;;;;;;;;;;;21.10;83.20;;;;;;5015553;28;19956;-79
2022/04/19 12:18:29;;;;;;;;;;;21.50;83.40;;;;;;5005137;28;20481;-77
2022/04/19 12:20:56;;;;;;;;;;;21.60;82.60;;;;;;5003034;28;19932;-81
2022/04/19 12:23:23;;;;;;;;;;;21.80;81.30;;;;;;5012251;28;19925;-79
2022/04/19 12:26:07;;;;;;;;;;;21.70;81.60;;;;;;5012227;28;20300;-78
2022/04/19 12:28:43;;;;;;;;;;;21.60;81.20;;;;;;5003834;28;19921;-78
2022/04/19 12:31:25;;;;;;;;;;;21.40;81.80;;;;;;5009484;28;19945;-78
2022/04/19 12:33:53;;;;;;;;;;;21.50;81.10;;;;;;5006312;28;19929;-81
2022/04/19 12:36:22;;;;;;;;;;;21.40;80.90;;;;;;5008572;28;20269;-79
2022/04/19 12:38:57;;;;;;;;;;;21.30;82.40;;;;;;5008621;28;19936;-77
2022/04/19 12:41:34;;;;;;;;;;;21.30;80.80;;;;;;5004100;28;19925;-77
2022/04/19 12:44:01;;;;;;;;;;;21.20;79.50;;;;;;5006415;28;19944;-77
2022/04/19 12:46:28;;;;;;;;;;;21.10;80.50;;;;;;5002539;28;20277;-77
2022/04/19 12:48:56;;;;;;;;;;;21.30;81.00;;;;;;5008801;28;20298;-78
2022/04/19 12:51:24;;;;;;;;;;;21.40;80.90;;;;;;5006436;28;19929;-78
2022/04/19 12:54:06;;;;;;;;;;;21.80;81.40;;;;;;5013211;28;19993;-78
2022/04/19 12:56:34;;;;;;;;;;;21.50;80.90;;;;;;5011426;28;20258;-77
2022/04/19 12:59:01;;;;;;;;;;;21.60;80.60;;;;;;5019227;28;19925;-78
2022/04/19 13:01:28;;;;;;;;;;;21.70;80.70;;;;;;5009012;28;19925;-78
2022/04/19 13:03:55;;;;;;;;;;;21.70;80.50;;;;;;5011542;28;19972;-79
2022/04/19 13:14:35;;;;;;;;;;;21.60;78.80;;;;;;5010487;28;19931;-79
2022/04/19 13:17:02;;;;;;;;;;;21.30;79.10;;;;;;5010835;28;20384;-80
2022/04/19 13:19:29;;;;;;;;;;;21.20;79.60;;;;;;5002149;28;19971;-79
2022/04/19 13:21:56;;;;;;;;;;;21.20;80.00;;;;;;5008388;28;19973;-79
2022/04/19 13:24:23;;;;;;;;;;;21.10;80.40;;;;;;5010517;28;19971;-80
2022/04/19 13:26:49;;;;;;;;;;;20.90;80.40;;;;;;5010961;28;19983;-79
2022/04/19 13:29:17;;;;;;;;;;;21.00;80.70;;;;;;5010682;28;19925;-79
2022/04/19 13:31:44;;;;;;;;;;;21.10;80.60;;;;;;5006382;28;19932;-81
2022/04/19 13:34:11;;;;;;;;;;;21.20;81.50;;;;;;5008146;28;19929;-79
2022/04/19 13:36:38;;;;;;;;;;;21.10;81.20;;;;;;5006844;28;19925;-79
2022/04/19 13:39:06;;;;;;;;;;;21.00;80.80;;;;;;5000482;28;20374;-79
2022/04/19 13:41:34;;;;;;;;;;;21.00;80.00;;;;;;5008615;28;19921;-79
2022/04/19 13:44:00;;;;;;;;;;;21.00;81.10;;;;;;5007062;28;19925;-79
2022/04/19 13:46:28;;;;;;;;;;;21.00;80.90;;;;;;5002502;28;19933;-79
2022/04/19 13:48:55;;;;;;;;;;;20.60;81.10;;;;;;4997312;28;19925;-82
2022/04/19 13:51:22;;;;;;;;;;;21.00;81.30;;;;;;5007248;28;20315;-80
2022/04/19 13:53:48;;;;;;;;;;;20.90;80.90;;;;;;5000755;28;19930;-79
2022/04/19 13:56:15;;;;;;;;;;;20.90;81.50;;;;;;5007959;28;20326;-79
2022/04/19 13:58:43;;;;;;;;;;;20.90;81.20;;;;;;5006459;28;20016;-80
2022/04/19 14:01:09;;;;;;;;;;;20.90;81.20;;;;;;5008973;28;19925;-80
2022/04/19 14:03:38;;;;;;;;;;;20.70;81.30;;;;;;5015240;28;19924;-80
2022/04/19 14:06:05;;;;;;;;;;;20.70;81.40;;;;;;5007049;28;19925;-80
2022/04/19 14:08:33;;;;;;;;;;;20.90;82.10;;;;;;5007918;28;19941;-79
2022/04/19 14:10:59;;;;;;;;;;;20.90;82.30;;;;;;5008345;28;20333;-79
2022/04/19 14:13:28;;;;;;;;;;;20.60;83.00;;;;;;5017338;28;20337;-80
2022/04/19 14:15:54;;;;;;;;;;;20.70;83.00;;;;;;5010708;28;20413;-80
2022/04/19 14:18:21;;;;;;;;;;;20.80;82.40;;;;;;5008458;28;19925;-80
2022/04/19 14:20:49;;;;;;;;;;;20.80;82.60;;;;;;5010635;28;20361;-81
2022/04/19 14:23:16;;;;;;;;;;;20.70;82.20;;;;;;5016426;28;19925;-82
2022/04/19 14:25:44;;;;;;;;;;;20.70;83.50;;;;;;5023906;28;19921;-82
2022/04/19 14:28:10;;;;;;;;;;;20.70;82.40;;;;;;5029125;28;19925;-83
2022/04/19 14:33:22;;;;;;;;;;;20.60;82.80;;;;;;5025811;28;20078;-81
2022/04/19 14:35:51;;;;;;;;;;;20.60;83.40;;;;;;5023933;28;19949;-84
2022/04/19 14:38:19;;;;;;;;;;;20.70;83.00;;;;;;5022589;28;19929;-81
2022/04/19 14:40:46;;;;;;;;;;;20.70;81.90;;;;;;5015946;28;19974;-83
2022/04/19 14:43:13;;;;;;;;;;;21.70;84.90;;;;;;5028750;28;19932;-82
2022/04/19 14:45:40;;;;;;;;;;;20.60;82.80;;;;;;5030765;28;20438;-82
2022/04/19 14:48:07;;;;;;;;;;;20.70;82.40;;;;;;5025112;28;19920;-82
2022/04/19 14:52:13;;;;;;;;;;;20.60;82.30;;;;;;5022671;28;19935;-79
2022/04/19 14:53:22;;;;;;;;;;;20.70;82.40;;;;;;5007707;28;19925;-79
2022/04/19 14:55:49;;;;;;;;;;;20.60;82.20;;;;;;5006834;28;19926;-79
2022/04/19 14:58:16;;;;;;;;;;;21.60;83.40;;;;;;5010603;28;19932;-80
2022/04/19 15:00:42;;;;;;;;;;;20.70;82.30;;;;;;5005219;28;19928;-79
2022/04/19 15:03:10;;;;;;;;;;;20.90;81.90;;;;;;5007134;28;19933;-79
2022/04/19 15:05:37;;;;;;;;;;;20.70;81.50;;;;;;5006176;28;19925;-79
2022/04/19 15:08:04;;;;;;;;;;;20.50;81.00;;;;;;5012880;28;19977;-79
2022/04/19 15:10:32;;;;;;;;;;;20.50;81.40;;;;;;5015810;28;20397;-79
2022/04/19 15:12:59;;;;;;;;;;;20.40;80.20;;;;;;5014654;28;19936;-80
2022/04/19 15:15:26;;;;;;;;;;;20.40;81.90;;;;;;5016905;28;19995;-79
2022/04/19 15:17:53;;;;;;;;;;;20.30;82.10;;;;;;5010117;28;19925;-79
2022/04/19 15:20:20;;;;;;;;;;;20.30;81.70;;;;;;5015846;28;20350;-79
2022/04/19 15:22:47;;;;;;;;;;;20.30;82.30;;;;;;5017934;28;20359;-78